sensor_id;sensor_type;location;lat;lon;timestamp;temperature;humidity
19342;DHT22;9807;48.258;12.690;2022-10-26T00:01:07;13.70;99.90
19342;DHT22;9807;48.258;12.690;2022-10-26T00:03:34;13.70;99.90
19342;DHT22;9807;48.258;12.690;2022-10-26T00:06:06;13.70;99.90
19342;DHT22;9807;48.258;12.690;2022-10-26T00:08:32;13.70;99.90
19342;DHT22;9807;48.258;12.690;2022-10-26T00:10:58;13.70;99.90
19342;DHT22;9807;48.258;12.690;2022-10-26T00:13:24;13.70;99.90
19342;DHT22;9807;48.258;12.690;2022-10-26T00:15:49;13.60;99.90
19342;DHT22;9807;48.258;12.690;2022-10-26T00:18:15;13.70;99.90
19342;DHT22;9807;48.258;12.690;2022-10-26T00:20:41;13.70;99.90
19342;DHT22;9807;48.258;12.690;2022-10-26T00:23:07;13.70;99.90
19342;DHT22;9807;48.258;12.690;2022-10-26T00:25:32;13.70;99.90
19342;DHT22;9807;48.258;12.690;2022-10-26T00:27:59;13.70;99.90
19342;DHT22;9807;48.258;12.690;2022-10-26T00:30:25;13.70;99.90
19342;DHT22;9807;48.258;12.690;2022-10-26T00:32:51;13.70;99.90
19342;DHT22;9807;48.258;12.690;2022-10-26T00:35:22;13.70;99.90
19342;DHT22;9807;48.258;12.690;2022-10-26T00:37:52;13.70;99.90
19342;DHT22;9807;48.258;12.690;2022-10-26T00:40:18;13.70;99.90
19342;DHT22;9807;48.258;12.690;2022-10-26T00:42:44;13.70;99.90
19342;DHT22;9807;48.258;12.690;2022-10-26T00:45:24;13.70;99.90
19342;DHT22;9807;48.258;12.690;2022-10-26T00:47:54;13.70;99.90
19342;DHT22;9807;48.258;12.690;2022-10-26T00:50:42;13.70;99.90
19342;DHT22;9807;48.258;12.690;2022-10-26T00:53:09;13.70;99.90
19342;DHT22;9807;48.258;12.690;2022-10-26T00:55:46;13.70;99.90
19342;DHT22;9807;48.258;12.690;2022-10-26T00:58:13;13.70;99.90
19342;DHT22;9807;48.258;12.690;2022-10-26T01:00:40;13.70;99.90
19342;DHT22;9807;48.258;12.690;2022-10-26T01:03:07;13.60;99.90
19342;DHT22;9807;48.258;12.690;2022-10-26T01:05:35;13.70;99.90
19342;DHT22;9807;48.258;12.690;2022-10-26T01:08:02;13.70;99.90
19342;DHT22;9807;48.258;12.690;2022-10-26T01:10:28;13.70;99.90
19342;DHT22;9807;48.258;12.690;2022-10-26T01:12:57;13.70;99.90
19342;DHT22;9807;48.258;12.690;2022-10-26T01:15:29;13.60;99.90
19342;DHT22;9807;48.258;12.690;2022-10-26T01:18:12;13.70;99.90
19342;DHT22;9807;48.258;12.690;2022-10-26T01:23:42;13.20;99.90
19342;DHT22;9807;48.258;12.690;2022-10-26T01:32:26;13.50;99.90
19342;DHT22;9807;48.258;12.690;2022-10-26T01:35:09;13.60;99.90
19342;DHT22;9807;48.258;12.690;2022-10-26T01:37:43;13.60;99.90
19342;DHT22;9807;48.258;12.690;2022-10-26T01:40:24;13.60;99.90
19342;DHT22;9807;48.258;12.690;2022-10-26T01:42:54;13.20;99.90
19342;DHT22;9807;48.258;12.690;2022-10-26T01:45:23;13.00;99.90
19342;DHT22;9807;48.258;12.690;2022-10-26T01:47:50;13.00;99.90
19342;DHT22;9807;48.258;12.690;2022-10-26T01:50:17;13.20;99.90
19342;DHT22;9807;48.258;12.690;2022-10-26T01:52:43;13.30;99.90
19342;DHT22;9807;48.258;12.690;2022-10-26T02:04:06;13.50;99.90
19342;DHT22;9807;48.258;12.690;2022-10-26T02:06:40;13.60;99.90
19342;DHT22;9807;48.258;12.690;2022-10-26T02:09:42;13.70;99.90
19342;DHT22;9807;48.258;12.690;2022-10-26T02:12:19;13.50;99.90
19342;DHT22;9807;48.258;12.690;2022-10-26T02:14:59;13.50;99.90
19342;DHT22;9807;48.258;12.690;2022-10-26T02:20:12;13.60;99.90
19342;DHT22;9807;48.258;12.690;2022-10-26T02:22:50;13.50;99.90
19342;DHT22;9807;48.258;12.690;2022-10-26T02:25:21;13.40;99.90
19342;DHT22;9807;48.258;12.690;2022-10-26T02:27:50;13.40;99.90
19342;DHT22;9807;48.258;12.690;2022-10-26T02:30:19;13.50;99.90
19342;DHT22;9807;48.258;12.690;2022-10-26T02:32:49;13.50;99.90
19342;DHT22;9807;48.258;12.690;2022-10-26T02:35:30;13.60;99.90
19342;DHT22;9807;48.258;12.690;2022-10-26T02:37:58;13.60;99.90
19342;DHT22;9807;48.258;12.690;2022-10-26T02:40:26;13.70;99.90
19342;DHT22;9807;48.258;12.690;2022-10-26T02:42:55;13.80;99.90
19342;DHT22;9807;48.258;12.690;2022-10-26T02:45:25;13.80;99.90
19342;DHT22;9807;48.258;12.690;2022-10-26T02:47:53;13.80;99.90
19342;DHT22;9807;48.258;12.690;2022-10-26T02:50:23;13.70;99.90
19342;DHT22;9807;48.258;12.690;2022-10-26T02:55:27;13.70;99.90
19342;DHT22;9807;48.258;12.690;2022-10-26T02:57:58;13.70;99.90
19342;DHT22;9807;48.258;12.690;2022-10-26T03:00:24;13.60;99.90
19342;DHT22;9807;48.258;12.690;2022-10-26T03:02:52;13.30;99.90
19342;DHT22;9807;48.258;12.690;2022-10-26T03:05:23;13.30;99.90
19342;DHT22;9807;48.258;12.690;2022-10-26T03:07:52;13.40;99.90
19342;DHT22;9807;48.258;12.690;2022-10-26T03:10:18;13.50;99.90
19342;DHT22;9807;48.258;12.690;2022-10-26T03:12:44;13.60;99.90
19342;DHT22;9807;48.258;12.690;2022-10-26T03:15:10;13.70;99.90
19342;DHT22;9807;48.258;12.690;2022-10-26T03:17:36;13.80;99.90
19342;DHT22;9807;48.258;12.690;2022-10-26T03:20:02;13.70;99.90
19342;DHT22;9807;48.258;12.690;2022-10-26T03:22:30;13.70;99.90
19342;DHT22;9807;48.258;12.690;2022-10-26T03:24:56;13.70;99.90
19342;DHT22;9807;48.258;12.690;2022-10-26T03:27:24;13.60;99.90
19342;DHT22;9807;48.258;12.690;2022-10-26T03:29:51;13.70;99.90
19342;DHT22;9807;48.258;12.690;2022-10-26T03:32:17;13.80;99.90
19342;DHT22;9807;48.258;12.690;2022-10-26T03:34:43;13.70;99.90
19342;DHT22;9807;48.258;12.690;2022-10-26T03:37:08;13.80;99.90
19342;DHT22;9807;48.258;12.690;2022-10-26T03:39:34;13.70;99.90
19342;DHT22;9807;48.258;12.690;2022-10-26T03:42:00;13.70;99.90
19342;DHT22;9807;48.258;12.690;2022-10-26T03:44:26;13.70;99.90
19342;DHT22;9807;48.258;12.690;2022-10-26T03:46:52;13.70;99.90
19342;DHT22;9807;48.258;12.690;2022-10-26T03:49:17;13.80;99.90
19342;DHT22;9807;48.258;12.690;2022-10-26T03:51:43;13.80;99.90
19342;DHT22;9807;48.258;12.690;2022-10-26T03:54:08;13.80;99.90
19342;DHT22;9807;48.258;12.690;2022-10-26T03:56:34;13.80;99.90
19342;DHT22;9807;48.258;12.690;2022-10-26T03:59:00;13.80;99.90
19342;DHT22;9807;48.258;12.690;2022-10-26T04:01:25;13.80;99.90
19342;DHT22;9807;48.258;12.690;2022-10-26T04:03:51;13.80;99.90
19342;DHT22;9807;48.258;12.690;2022-10-26T04:06:17;13.80;99.90
19342;DHT22;9807;48.258;12.690;2022-10-26T04:08:43;13.70;99.90
19342;DHT22;9807;48.258;12.690;2022-10-26T04:11:08;13.50;99.90
19342;DHT22;9807;48.258;12.690;2022-10-26T04:13:34;13.00;99.90
19342;DHT22;9807;48.258;12.690;2022-10-26T04:16:00;12.80;99.90
19342;DHT22;9807;48.258;12.690;2022-10-26T04:18:25;12.90;99.90
19342;DHT22;9807;48.258;12.690;2022-10-26T04:20:51;13.00;99.90
19342;DHT22;9807;48.258;12.690;2022-10-26T04:23:18;13.20;99.90
19342;DHT22;9807;48.258;12.690;2022-10-26T04:25:44;13.40;99.90
19342;DHT22;9807;48.258;12.690;2022-10-26T04:28:11;13.50;99.90
19342;DHT22;9807;48.258;12.690;2022-10-26T04:30:41;13.60;99.90
19342;DHT22;9807;48.258;12.690;2022-10-26T04:33:09;13.40;99.90
19342;DHT22;9807;48.258;12.690;2022-10-26T04:35:39;12.90;99.90
19342;DHT22;9807;48.258;12.690;2022-10-26T04:38:05;12.80;99.90
19342;DHT22;9807;48.258;12.690;2022-10-26T04:40:32;13.00;99.90
19342;DHT22;9807;48.258;12.690;2022-10-26T04:42:58;13.20;99.90
19342;DHT22;9807;48.258;12.690;2022-10-26T04:45:24;13.40;99.90
19342;DHT22;9807;48.258;12.690;2022-10-26T04:48:07;13.40;99.90
19342;DHT22;9807;48.258;12.690;2022-10-26T04:50:34;13.30;99.90
19342;DHT22;9807;48.258;12.690;2022-10-26T04:53:00;13.30;99.90
19342;DHT22;9807;48.258;12.690;2022-10-26T04:55:26;13.50;99.90
19342;DHT22;9807;48.258;12.690;2022-10-26T04:57:52;13.60;99.90
19342;DHT22;9807;48.258;12.690;2022-10-26T05:00:17;13.60;99.90
19342;DHT22;9807;48.258;12.690;2022-10-26T05:02:49;13.70;99.90
19342;DHT22;9807;48.258;12.690;2022-10-26T05:05:15;13.70;99.90
19342;DHT22;9807;48.258;12.690;2022-10-26T05:07:40;13.70;99.90
19342;DHT22;9807;48.258;12.690;2022-10-26T05:10:06;13.70;99.90
19342;DHT22;9807;48.258;12.690;2022-10-26T05:12:35;13.70;99.90
19342;DHT22;9807;48.258;12.690;2022-10-26T05:15:01;13.80;99.90
19342;DHT22;9807;48.258;12.690;2022-10-26T05:17:27;13.80;99.90
19342;DHT22;9807;48.258;12.690;2022-10-26T05:19:53;13.80;99.90
19342;DHT22;9807;48.258;12.690;2022-10-26T05:22:26;13.90;99.90
19342;DHT22;9807;48.258;12.690;2022-10-26T05:24:52;13.80;99.90
19342;DHT22;9807;48.258;12.690;2022-10-26T05:27:18;13.80;99.90
19342;DHT22;9807;48.258;12.690;2022-10-26T05:29:43;13.80;99.90
19342;DHT22;9807;48.258;12.690;2022-10-26T05:32:09;13.80;99.90
19342;DHT22;9807;48.258;12.690;2022-10-26T05:34:35;13.80;99.90
19342;DHT22;9807;48.258;12.690;2022-10-26T05:37:00;13.80;99.90
19342;DHT22;9807;48.258;12.690;2022-10-26T05:39:29;13.80;99.90
19342;DHT22;9807;48.258;12.690;2022-10-26T05:41:54;13.80;99.90
19342;DHT22;9807;48.258;12.690;2022-10-26T05:44:20;13.80;99.90
19342;DHT22;9807;48.258;12.690;2022-10-26T05:46:49;13.80;99.90
19342;DHT22;9807;48.258;12.690;2022-10-26T05:49:15;13.80;99.90
19342;DHT22;9807;48.258;12.690;2022-10-26T05:51:40;13.80;99.90
19342;DHT22;9807;48.258;12.690;2022-10-26T05:54:06;13.80;99.90
19342;DHT22;9807;48.258;12.690;2022-10-26T05:56:39;13.80;99.90
19342;DHT22;9807;48.258;12.690;2022-10-26T05:59:11;13.80;99.90
19342;DHT22;9807;48.258;12.690;2022-10-26T06:04:44;13.70;99.90
19342;DHT22;9807;48.258;12.690;2022-10-26T06:07:17;13.60;99.90
19342;DHT22;9807;48.258;12.690;2022-10-26T06:09:49;13.50;99.90
19342;DHT22;9807;48.258;12.690;2022-10-26T06:12:15;13.50;99.90
19342;DHT22;9807;48.258;12.690;2022-10-26T06:14:41;13.40;99.90
19342;DHT22;9807;48.258;12.690;2022-10-26T06:22:59;11.40;99.90
19342;DHT22;9807;48.258;12.690;2022-10-26T06:30:50;11.10;99.90
19342;DHT22;9807;48.258;12.690;2022-10-26T06:33:16;11.20;99.90
19342;DHT22;9807;48.258;12.690;2022-10-26T06:36:22;11.20;99.90
19342;DHT22;9807;48.258;12.690;2022-10-26T06:38:51;11.30;99.90
19342;DHT22;9807;48.258;12.690;2022-10-26T06:41:19;11.40;99.90
19342;DHT22;9807;48.258;12.690;2022-10-26T06:43:46;11.60;99.90
19342;DHT22;9807;48.258;12.690;2022-10-26T06:54:56;12.30;99.90
19342;DHT22;9807;48.258;12.690;2022-10-26T06:57:25;12.40;99.90
19342;DHT22;9807;48.258;12.690;2022-10-26T06:59:55;12.50;99.90
19342;DHT22;9807;48.258;12.690;2022-10-26T07:02:25;12.60;99.90
19342;DHT22;9807;48.258;12.690;2022-10-26T07:04:54;12.90;99.90
19342;DHT22;9807;48.258;12.690;2022-10-26T07:07:21;13.10;99.90
19342;DHT22;9807;48.258;12.690;2022-10-26T07:09:48;13.30;99.90
19342;DHT22;9807;48.258;12.690;2022-10-26T07:12:14;13.40;99.90
19342;DHT22;9807;48.258;12.690;2022-10-26T07:14:40;13.50;99.90
19342;DHT22;9807;48.258;12.690;2022-10-26T07:17:05;13.60;99.90
19342;DHT22;9807;48.258;12.690;2022-10-26T07:19:31;13.50;99.90
19342;DHT22;9807;48.258;12.690;2022-10-26T07:21:57;13.60;99.90
19342;DHT22;9807;48.258;12.690;2022-10-26T07:24:29;13.60;99.90
19342;DHT22;9807;48.258;12.690;2022-10-26T07:26:56;13.70;99.90
19342;DHT22;9807;48.258;12.690;2022-10-26T07:29:25;13.70;99.90
19342;DHT22;9807;48.258;12.690;2022-10-26T07:31:51;13.80;99.90
19342;DHT22;9807;48.258;12.690;2022-10-26T07:34:22;13.90;99.90
19342;DHT22;9807;48.258;12.690;2022-10-26T07:36:48;13.90;99.90
19342;DHT22;9807;48.258;12.690;2022-10-26T07:39:16;14.10;99.90
19342;DHT22;9807;48.258;12.690;2022-10-26T07:41:41;14.10;99.90
19342;DHT22;9807;48.258;12.690;2022-10-26T07:44:07;14.10;99.90
19342;DHT22;9807;48.258;12.690;2022-10-26T07:46:33;14.10;99.90
19342;DHT22;9807;48.258;12.690;2022-10-26T07:48:58;14.10;99.90
19342;DHT22;9807;48.258;12.690;2022-10-26T07:51:26;14.20;99.90
19342;DHT22;9807;48.258;12.690;2022-10-26T07:53:52;14.10;99.90
19342;DHT22;9807;48.258;12.690;2022-10-26T07:56:18;14.20;99.90
19342;DHT22;9807;48.258;12.690;2022-10-26T07:58:43;14.30;99.90
19342;DHT22;9807;48.258;12.690;2022-10-26T08:01:11;14.30;99.90
19342;DHT22;9807;48.258;12.690;2022-10-26T08:03:40;14.30;99.90
19342;DHT22;9807;48.258;12.690;2022-10-26T08:06:06;14.30;99.90
19342;DHT22;9807;48.258;12.690;2022-10-26T08:08:34;14.20;99.90
19342;DHT22;9807;48.258;12.690;2022-10-26T08:11:00;14.20;99.90
19342;DHT22;9807;48.258;12.690;2022-10-26T08:13:25;14.30;99.90
19342;DHT22;9807;48.258;12.690;2022-10-26T08:15:58;14.40;99.90
19342;DHT22;9807;48.258;12.690;2022-10-26T08:18:25;14.40;99.90
19342;DHT22;9807;48.258;12.690;2022-10-26T08:20:51;14.50;99.90
19342;DHT22;9807;48.258;12.690;2022-10-26T08:23:19;14.50;99.90
19342;DHT22;9807;48.258;12.690;2022-10-26T08:25:48;14.40;99.90
19342;DHT22;9807;48.258;12.690;2022-10-26T08:28:14;14.40;99.90
19342;DHT22;9807;48.258;12.690;2022-10-26T08:30:40;14.50;99.90
19342;DHT22;9807;48.258;12.690;2022-10-26T08:33:06;14.60;99.90
19342;DHT22;9807;48.258;12.690;2022-10-26T08:35:32;14.80;99.90
19342;DHT22;9807;48.258;12.690;2022-10-26T08:37:59;14.80;99.90
19342;DHT22;9807;48.258;12.690;2022-10-26T08:40:29;14.80;99.90
19342;DHT22;9807;48.258;12.690;2022-10-26T08:43:23;14.60;99.90
19342;DHT22;9807;48.258;12.690;2022-10-26T08:48:22;14.80;99.90
19342;DHT22;9807;48.258;12.690;2022-10-26T08:50:55;14.90;99.90
19342;DHT22;9807;48.258;12.690;2022-10-26T08:53:35;15.00;99.90
19342;DHT22;9807;48.258;12.690;2022-10-26T08:56:12;15.10;99.90
19342;DHT22;9807;48.258;12.690;2022-10-26T08:58:53;15.20;99.90
19342;DHT22;9807;48.258;12.690;2022-10-26T09:01:25;15.20;99.90
19342;DHT22;9807;48.258;12.690;2022-10-26T09:03:50;15.00;99.90
19342;DHT22;9807;48.258;12.690;2022-10-26T09:06:55;14.90;99.90
19342;DHT22;9807;48.258;12.690;2022-10-26T09:26:14;14.80;99.90
19342;DHT22;9807;48.258;12.690;2022-10-26T09:28:47;14.90;99.90
19342;DHT22;9807;48.258;12.690;2022-10-26T09:31:15;15.10;99.90
19342;DHT22;9807;48.258;12.690;2022-10-26T09:33:41;15.30;99.90
19342;DHT22;9807;48.258;12.690;2022-10-26T09:36:13;15.40;99.90
19342;DHT22;9807;48.258;12.690;2022-10-26T09:38:56;15.50;99.90
19342;DHT22;9807;48.258;12.690;2022-10-26T09:41:46;15.60;99.90
19342;DHT22;9807;48.258;12.690;2022-10-26T09:44:41;15.80;99.90
19342;DHT22;9807;48.258;12.690;2022-10-26T09:47:33;16.00;99.90
19342;DHT22;9807;48.258;12.690;2022-10-26T09:50:16;16.10;99.90
19342;DHT22;9807;48.258;12.690;2022-10-26T09:52:43;16.20;99.90
19342;DHT22;9807;48.258;12.690;2022-10-26T09:55:12;16.30;99.90
19342;DHT22;9807;48.258;12.690;2022-10-26T09:57:44;16.40;99.90
19342;DHT22;9807;48.258;12.690;2022-10-26T10:00:16;16.50;99.90
19342;DHT22;9807;48.258;12.690;2022-10-26T10:02:44;16.50;99.90
19342;DHT22;9807;48.258;12.690;2022-10-26T10:05:39;16.60;99.90
19342;DHT22;9807;48.258;12.690;2022-10-26T10:08:16;16.70;99.90
19342;DHT22;9807;48.258;12.690;2022-10-26T10:11:02;16.70;99.90
19342;DHT22;9807;48.258;12.690;2022-10-26T10:13:38;16.80;99.90
19342;DHT22;9807;48.258;12.690;2022-10-26T10:16:23;16.90;99.90
19342;DHT22;9807;48.258;12.690;2022-10-26T10:18:57;16.90;99.90
19342;DHT22;9807;48.258;12.690;2022-10-26T10:21:35;16.90;99.90
19342;DHT22;9807;48.258;12.690;2022-10-26T10:24:01;17.00;99.90
19342;DHT22;9807;48.258;12.690;2022-10-26T10:26:27;17.00;99.90
19342;DHT22;9807;48.258;12.690;2022-10-26T10:29:00;17.00;99.90
19342;DHT22;9807;48.258;12.690;2022-10-26T10:31:34;17.10;99.90
19342;DHT22;9807;48.258;12.690;2022-10-26T10:34:14;17.20;99.90
19342;DHT22;9807;48.258;12.690;2022-10-26T10:36:40;17.20;99.90
19342;DHT22;9807;48.258;12.690;2022-10-26T10:39:39;17.30;99.90
19342;DHT22;9807;48.258;12.690;2022-10-26T10:42:36;17.40;99.90
19342;DHT22;9807;48.258;12.690;2022-10-26T10:45:05;17.30;99.90
19342;DHT22;9807;48.258;12.690;2022-10-26T10:47:34;17.30;99.90
19342;DHT22;9807;48.258;12.690;2022-10-26T10:50:14;17.20;99.90
19342;DHT22;9807;48.258;12.690;2022-10-26T10:52:41;17.30;99.90
19342;DHT22;9807;48.258;12.690;2022-10-26T11:00:15;17.30;99.90
19342;DHT22;9807;48.258;12.690;2022-10-26T11:02:48;17.40;99.90
19342;DHT22;9807;48.258;12.690;2022-10-26T11:05:44;17.30;99.90
19342;DHT22;9807;48.258;12.690;2022-10-26T11:08:26;17.40;99.90
19342;DHT22;9807;48.258;12.690;2022-10-26T11:11:12;17.50;99.90
19342;DHT22;9807;48.258;12.690;2022-10-26T11:13:54;17.60;99.90
19342;DHT22;9807;48.258;12.690;2022-10-26T11:16:42;17.70;99.90
19342;DHT22;9807;48.258;12.690;2022-10-26T11:19:25;17.80;99.90
19342;DHT22;9807;48.258;12.690;2022-10-26T11:21:54;17.90;99.90
19342;DHT22;9807;48.258;12.690;2022-10-26T11:26:59;18.00;99.90
19342;DHT22;9807;48.258;12.690;2022-10-26T11:29:52;18.00;99.90
19342;DHT22;9807;48.258;12.690;2022-10-26T11:32:35;18.00;99.90
19342;DHT22;9807;48.258;12.690;2022-10-26T11:35:25;18.00;99.90
19342;DHT22;9807;48.258;12.690;2022-10-26T11:38:13;18.00;99.90
19342;DHT22;9807;48.258;12.690;2022-10-26T11:40:50;18.00;99.90
19342;DHT22;9807;48.258;12.690;2022-10-26T11:43:40;18.00;99.90
19342;DHT22;9807;48.258;12.690;2022-10-26T11:51:19;18.10;99.90
19342;DHT22;9807;48.258;12.690;2022-10-26T11:53:46;18.10;99.90
19342;DHT22;9807;48.258;12.690;2022-10-26T11:56:32;18.20;99.90
19342;DHT22;9807;48.258;12.690;2022-10-26T11:59:00;18.20;99.90
19342;DHT22;9807;48.258;12.690;2022-10-26T12:01:27;18.20;99.90
19342;DHT22;9807;48.258;12.690;2022-10-26T12:03:54;18.20;99.90
19342;DHT22;9807;48.258;12.690;2022-10-26T12:06:25;18.20;99.90
19342;DHT22;9807;48.258;12.690;2022-10-26T12:09:03;18.20;99.90
19342;DHT22;9807;48.258;12.690;2022-10-26T12:11:51;18.20;99.90
19342;DHT22;9807;48.258;12.690;2022-10-26T12:22:35;18.30;99.90
19342;DHT22;9807;48.258;12.690;2022-10-26T12:32:51;18.30;99.90
19342;DHT22;9807;48.258;12.690;2022-10-26T12:48:43;18.40;99.90
19342;DHT22;9807;48.258;12.690;2022-10-26T12:54:14;18.50;99.90
19342;DHT22;9807;48.258;12.690;2022-10-26T12:57:19;18.50;99.90
19342;DHT22;9807;48.258;12.690;2022-10-26T12:59:59;18.60;99.90
19342;DHT22;9807;48.258;12.690;2022-10-26T13:07:39;18.60;99.90
19342;DHT22;9807;48.258;12.690;2022-10-26T13:10:16;18.70;99.90
19342;DHT22;9807;48.258;12.690;2022-10-26T13:12:52;18.70;99.90
19342;DHT22;9807;48.258;12.690;2022-10-26T13:16:13;18.70;99.90
19342;DHT22;9807;48.258;12.690;2022-10-26T13:18:15;18.80;99.90
19342;DHT22;9807;48.258;12.690;2022-10-26T13:21:02;18.80;99.90
19342;DHT22;9807;48.258;12.690;2022-10-26T13:23:31;18.90;99.90
19342;DHT22;9807;48.258;12.690;2022-10-26T13:26:17;18.90;99.90
19342;DHT22;9807;48.258;12.690;2022-10-26T13:28:50;18.90;99.90
19342;DHT22;9807;48.258;12.690;2022-10-26T13:34:16;19.00;99.90
19342;DHT22;9807;48.258;12.690;2022-10-26T13:40:03;19.10;99.90
19342;DHT22;9807;48.258;12.690;2022-10-26T13:42:41;19.00;99.90
19342;DHT22;9807;48.258;12.690;2022-10-26T13:45:17;19.10;99.90
19342;DHT22;9807;48.258;12.690;2022-10-26T13:50:49;19.10;99.90
19342;DHT22;9807;48.258;12.690;2022-10-26T13:53:21;19.10;99.90
19342;DHT22;9807;48.258;12.690;2022-10-26T13:56:16;19.00;99.90
19342;DHT22;9807;48.258;12.690;2022-10-26T13:59:11;19.00;99.90
19342;DHT22;9807;48.258;12.690;2022-10-26T14:01:38;18.90;99.90
19342;DHT22;9807;48.258;12.690;2022-10-26T14:04:18;18.90;99.90
19342;DHT22;9807;48.258;12.690;2022-10-26T14:06:50;18.90;99.90
19342;DHT22;9807;48.258;12.690;2022-10-26T14:09:18;18.90;99.90
19342;DHT22;9807;48.258;12.690;2022-10-26T14:11:55;18.80;99.90
19342;DHT22;9807;48.258;12.690;2022-10-26T14:16:52;18.90;99.90
19342;DHT22;9807;48.258;12.690;2022-10-26T14:19:26;18.80;99.90
19342;DHT22;9807;48.258;12.690;2022-10-26T14:21:53;18.80;99.90
19342;DHT22;9807;48.258;12.690;2022-10-26T14:24:26;18.80;99.90
19342;DHT22;9807;48.258;12.690;2022-10-26T14:26:52;18.80;99.90
19342;DHT22;9807;48.258;12.690;2022-10-26T14:29:23;18.70;99.90
19342;DHT22;9807;48.258;12.690;2022-10-26T14:31:50;18.70;99.90
19342;DHT22;9807;48.258;12.690;2022-10-26T14:34:17;18.70;99.90
19342;DHT22;9807;48.258;12.690;2022-10-26T14:36:50;18.60;99.90
19342;DHT22;9807;48.258;12.690;2022-10-26T14:39:29;18.60;99.90
19342;DHT22;9807;48.258;12.690;2022-10-26T14:41:56;18.60;99.90
19342;DHT22;9807;48.258;12.690;2022-10-26T14:44:24;18.60;99.90
19342;DHT22;9807;48.258;12.690;2022-10-26T14:46:50;18.60;99.90
19342;DHT22;9807;48.258;12.690;2022-10-26T14:49:26;18.50;99.90
19342;DHT22;9807;48.258;12.690;2022-10-26T14:52:04;18.60;99.90
19342;DHT22;9807;48.258;12.690;2022-10-26T14:54:32;18.60;99.90
19342;DHT22;9807;48.258;12.690;2022-10-26T14:57:00;18.50;99.90
19342;DHT22;9807;48.258;12.690;2022-10-26T14:59:33;18.50;99.90
19342;DHT22;9807;48.258;12.690;2022-10-26T15:02:11;18.50;99.90
19342;DHT22;9807;48.258;12.690;2022-10-26T15:04:41;18.50;99.90
19342;DHT22;9807;48.258;12.690;2022-10-26T15:09:48;18.40;99.90
19342;DHT22;9807;48.258;12.690;2022-10-26T15:14:44;18.30;99.90
19342;DHT22;9807;48.258;12.690;2022-10-26T15:17:35;18.30;99.90
19342;DHT22;9807;48.258;12.690;2022-10-26T15:20:06;18.30;99.90
19342;DHT22;9807;48.258;12.690;2022-10-26T15:22:33;18.30;99.90
19342;DHT22;9807;48.258;12.690;2022-10-26T15:25:01;18.20;99.90
19342;DHT22;9807;48.258;12.690;2022-10-26T15:27:28;18.20;99.90
19342;DHT22;9807;48.258;12.690;2022-10-26T15:30:20;18.20;99.90
19342;DHT22;9807;48.258;12.690;2022-10-26T15:32:50;18.20;99.90
19342;DHT22;9807;48.258;12.690;2022-10-26T15:37:42;18.10;99.90
19342;DHT22;9807;48.258;12.690;2022-10-26T15:40:08;18.10;99.90
19342;DHT22;9807;48.258;12.690;2022-10-26T15:42:36;18.00;99.90
19342;DHT22;9807;48.258;12.690;2022-10-26T15:47:38;17.90;99.90
19342;DHT22;9807;48.258;12.690;2022-10-26T15:50:04;17.90;99.90
19342;DHT22;9807;48.258;12.690;2022-10-26T15:52:30;17.80;99.90
19342;DHT22;9807;48.258;12.690;2022-10-26T15:54:56;17.80;99.90
19342;DHT22;9807;48.258;12.690;2022-10-26T15:57:23;17.80;99.90
19342;DHT22;9807;48.258;12.690;2022-10-26T15:59:52;17.70;99.90
19342;DHT22;9807;48.258;12.690;2022-10-26T16:02:18;17.60;99.90
19342;DHT22;9807;48.258;12.690;2022-10-26T16:04:43;17.60;99.90
19342;DHT22;9807;48.258;12.690;2022-10-26T16:07:13;17.60;99.90
19342;DHT22;9807;48.258;12.690;2022-10-26T16:09:40;17.50;99.90
19342;DHT22;9807;48.258;12.690;2022-10-26T16:12:11;17.50;99.90
19342;DHT22;9807;48.258;12.690;2022-10-26T16:14:38;17.50;99.90
19342;DHT22;9807;48.258;12.690;2022-10-26T16:17:04;17.50;99.90
19342;DHT22;9807;48.258;12.690;2022-10-26T16:19:31;17.40;99.90
19342;DHT22;9807;48.258;12.690;2022-10-26T16:21:57;17.40;99.90
19342;DHT22;9807;48.258;12.690;2022-10-26T16:24:23;17.40;99.90
19342;DHT22;9807;48.258;12.690;2022-10-26T16:26:48;17.40;99.90
19342;DHT22;9807;48.258;12.690;2022-10-26T16:29:14;17.40;99.90
19342;DHT22;9807;48.258;12.690;2022-10-26T16:31:40;17.30;99.90
19342;DHT22;9807;48.258;12.690;2022-10-26T16:34:06;17.30;99.90
19342;DHT22;9807;48.258;12.690;2022-10-26T16:36:31;17.30;99.90
19342;DHT22;9807;48.258;12.690;2022-10-26T16:38:59;17.20;99.90
19342;DHT22;9807;48.258;12.690;2022-10-26T16:41:24;17.20;99.90
19342;DHT22;9807;48.258;12.690;2022-10-26T16:43:50;17.20;99.90
19342;DHT22;9807;48.258;12.690;2022-10-26T16:46:18;17.10;99.90
19342;DHT22;9807;48.258;12.690;2022-10-26T16:48:45;17.20;99.90
19342;DHT22;9807;48.258;12.690;2022-10-26T16:51:16;17.10;99.90
19342;DHT22;9807;48.258;12.690;2022-10-26T16:53:42;17.10;99.90
19342;DHT22;9807;48.258;12.690;2022-10-26T16:56:13;17.00;99.90
19342;DHT22;9807;48.258;12.690;2022-10-26T16:58:39;17.00;99.90
19342;DHT22;9807;48.258;12.690;2022-10-26T17:01:06;17.00;99.90
19342;DHT22;9807;48.258;12.690;2022-10-26T17:03:32;16.90;99.90
19342;DHT22;9807;48.258;12.690;2022-10-26T17:05:59;16.90;99.90
19342;DHT22;9807;48.258;12.690;2022-10-26T17:08:26;16.90;99.90
19342;DHT22;9807;48.258;12.690;2022-10-26T17:11:00;16.90;99.90
19342;DHT22;9807;48.258;12.690;2022-10-26T17:13:26;16.90;99.90
19342;DHT22;9807;48.258;12.690;2022-10-26T17:15:52;16.80;99.90
19342;DHT22;9807;48.258;12.690;2022-10-26T17:18:17;16.80;99.90
19342;DHT22;9807;48.258;12.690;2022-10-26T17:20:49;16.80;99.90
19342;DHT22;9807;48.258;12.690;2022-10-26T17:23:16;16.70;99.90
19342;DHT22;9807;48.258;12.690;2022-10-26T17:25:42;16.70;99.90
19342;DHT22;9807;48.258;12.690;2022-10-26T17:28:08;16.70;99.90
19342;DHT22;9807;48.258;12.690;2022-10-26T17:30:33;16.70;99.90
19342;DHT22;9807;48.258;12.690;2022-10-26T17:33:00;16.70;99.90
19342;DHT22;9807;48.258;12.690;2022-10-26T17:35:26;16.70;99.90
19342;DHT22;9807;48.258;12.690;2022-10-26T17:37:52;16.60;99.90
19342;DHT22;9807;48.258;12.690;2022-10-26T17:40:18;16.60;99.90
19342;DHT22;9807;48.258;12.690;2022-10-26T17:42:43;16.60;99.90
19342;DHT22;9807;48.258;12.690;2022-10-26T17:45:09;16.60;99.90
19342;DHT22;9807;48.258;12.690;2022-10-26T17:47:35;16.50;99.90
19342;DHT22;9807;48.258;12.690;2022-10-26T17:50:01;16.50;99.90
19342;DHT22;9807;48.258;12.690;2022-10-26T17:52:28;16.40;99.90
19342;DHT22;9807;48.258;12.690;2022-10-26T17:54:54;16.20;99.90
19342;DHT22;9807;48.258;12.690;2022-10-26T17:57:19;16.10;99.90
19342;DHT22;9807;48.258;12.690;2022-10-26T17:59:48;16.20;99.90
19342;DHT22;9807;48.258;12.690;2022-10-26T18:02:14;16.10;99.90
19342;DHT22;9807;48.258;12.690;2022-10-26T18:04:39;16.10;99.90
19342;DHT22;9807;48.258;12.690;2022-10-26T18:07:05;16.10;99.90
19342;DHT22;9807;48.258;12.690;2022-10-26T18:09:31;16.10;99.90